createdAt,value
2023-04-01T00:01:23.104Z,80.90
2023-04-01T00:03:50.053Z,80.50
2023-04-01T00:06:18.933Z,80.80
2023-04-01T00:08:46.652Z,80.50
2023-04-01T00:11:14.640Z,80.80
2023-04-01T00:13:42.506Z,80.80
2023-04-01T00:16:19.802Z,80.70
2023-04-01T00:18:48.573Z,80.50
2023-04-01T00:21:16.793Z,80.60
2023-04-01T00:23:44.692Z,80.80
2023-04-01T00:26:13.404Z,80.80
2023-04-01T00:28:41.222Z,80.50
2023-04-01T00:31:09.564Z,80.90
2023-04-01T00:33:36.853Z,80.80
2023-04-01T00:36:12.031Z,81.10
2023-04-01T00:38:39.708Z,81.20
2023-04-01T00:41:07.563Z,80.90
2023-04-01T00:43:35.569Z,81.00
2023-04-01T00:46:02.598Z,80.80
2023-04-01T00:48:34.415Z,80.90
2023-04-01T00:51:15.058Z,80.70
2023-04-01T00:53:46.149Z,80.70
2023-04-01T00:56:23.511Z,80.80
2023-04-01T00:58:57.468Z,80.90
2023-04-01T01:01:25.723Z,81.00
2023-04-01T01:03:52.679Z,81.00
2023-04-01T01:06:40.019Z,81.10
2023-04-01T01:09:12.729Z,80.40
2023-04-01T01:11:51.370Z,80.80
2023-04-01T01:14:30.206Z,81.00
2023-04-01T01:17:13.112Z,80.70
2023-04-01T01:20:15.678Z,80.80
2023-04-01T01:22:52.894Z,80.80
2023-04-01T01:25:40.517Z,81.50
2023-04-01T01:28:15.758Z,81.60
2023-04-01T01:30:59.279Z,82.70
2023-04-01T01:33:45.760Z,82.60
2023-04-01T01:36:15.034Z,82.60
2023-04-01T01:38:42.457Z,82.30
2023-04-01T01:41:11.250Z,81.90
2023-04-01T01:43:42.927Z,82.20
2023-04-01T01:46:15.440Z,82.00
2023-04-01T01:48:44.540Z,81.60
2023-04-01T01:51:12.012Z,81.30
2023-04-01T01:53:38.938Z,81.20
2023-04-01T01:56:06.126Z,81.50
2023-04-01T01:58:49.107Z,81.30
2023-04-01T02:01:24.181Z,81.20
2023-04-01T02:03:53.262Z,81.60
2023-04-01T02:06:24.250Z,81.60
2023-04-01T02:09:03.816Z,82.20
2023-04-01T02:11:41.843Z,81.50
2023-04-01T02:14:23.971Z,81.30
2023-04-01T02:16:58.162Z,81.20
2023-04-01T02:19:38.659Z,81.30
2023-04-01T02:22:11.676Z,81.70
2023-04-01T02:24:41.024Z,81.80
2023-04-01T02:27:08.351Z,81.40
2023-04-01T02:29:35.334Z,81.10
2023-04-01T02:32:03.662Z,81.50
2023-04-01T02:34:30.721Z,81.40
2023-04-01T02:36:58.327Z,81.20
2023-04-01T02:39:27.196Z,81.50
2023-04-01T02:41:54.438Z,81.40
2023-04-01T02:44:21.361Z,81.10
2023-04-01T02:46:48.287Z,81.20
2023-04-01T02:49:15.225Z,80.90
2023-04-01T02:51:42.135Z,81.30
2023-04-01T02:54:10.382Z,81.40
2023-04-01T02:56:37.619Z,81.20
2023-04-01T02:59:04.402Z,81.40
2023-04-01T03:01:31.518Z,81.80
2023-04-01T03:03:58.485Z,81.90
2023-04-01T03:06:25.391Z,81.90
2023-04-01T03:08:52.153Z,81.70
2023-04-01T03:11:19.038Z,80.90
2023-04-01T03:13:45.916Z,80.80
2023-04-01T03:16:12.877Z,80.80
2023-04-01T03:18:39.743Z,81.40
2023-04-01T03:21:22.769Z,81.30
2023-04-01T03:23:50.721Z,81.20
2023-04-01T03:26:18.084Z,81.50
2023-04-01T03:28:45.615Z,81.70
2023-04-01T03:31:13.111Z,81.50
2023-04-01T03:33:46.907Z,81.50
2023-04-01T03:36:14.058Z,81.60
2023-04-01T03:38:44.804Z,81.30
2023-04-01T03:41:15.383Z,81.50
2023-04-01T03:43:42.282Z,81.60
2023-04-01T03:46:09.368Z,81.40
2023-04-01T03:48:36.449Z,82.20
2023-04-01T03:51:07.482Z,81.50
2023-04-01T03:53:34.474Z,81.20
2023-04-01T03:56:09.098Z,81.30
2023-04-01T03:58:37.549Z,81.50
2023-04-01T04:01:15.380Z,81.40
2023-04-01T04:03:42.461Z,81.30
2023-04-01T04:06:13.058Z,81.70
2023-04-01T04:08:40.424Z,81.00
2023-04-01T04:11:07.383Z,81.40
2023-04-01T04:13:36.994Z,81.20
2023-04-01T04:16:04.718Z,80.80
2023-04-01T04:18:32.802Z,81.10
2023-04-01T04:20:59.645Z,81.00
2023-04-01T04:23:26.620Z,80.90
2023-04-01T04:26:08.039Z,81.20
2023-04-01T04:28:35.665Z,80.90
2023-04-01T04:31:03.160Z,81.30
2023-04-01T04:33:30.172Z,80.90
2023-04-01T04:35:58.438Z,81.60
2023-04-01T04:38:26.286Z,81.30
2023-04-01T04:40:54.590Z,81.40
2023-04-01T04:43:21.715Z,80.60
2023-04-01T04:45:48.862Z,80.30
2023-04-01T04:48:21.053Z,80.70
2023-04-01T04:50:50.618Z,80.70
2023-04-01T04:53:19.951Z,80.50
2023-04-01T04:55:48.521Z,81.30
2023-04-01T04:58:40.007Z,81.10
2023-04-01T05:01:14.720Z,80.80
2023-04-01T05:03:41.984Z,81.00
2023-04-01T05:06:10.029Z,80.60
2023-04-01T05:08:37.361Z,80.60
2023-04-01T05:11:04.470Z,80.60
2023-04-01T05:13:33.659Z,80.50
2023-04-01T05:16:00.584Z,81.00
2023-04-01T05:18:27.549Z,81.10
2023-04-01T05:20:55.797Z,81.00
2023-04-01T05:23:23.650Z,80.40
2023-04-01T05:25:51.972Z,80.70
2023-04-01T05:28:19.613Z,80.90
2023-04-01T05:30:47.736Z,80.60
2023-04-01T05:33:22.407Z,80.70
2023-04-01T05:35:49.394Z,81.00
2023-04-01T05:38:16.329Z,80.90
2023-04-01T05:40:43.331Z,80.90
2023-04-01T05:43:10.505Z,80.30
2023-04-01T05:45:37.740Z,80.40
2023-04-01T05:48:13.436Z,80.60
2023-04-01T05:50:42.552Z,80.80
2023-04-01T05:53:11.040Z,80.80
2023-04-01T05:55:39.944Z,80.80
2023-04-01T05:58:06.968Z,81.20
2023-04-01T06:00:35.224Z,80.70
2023-04-01T06:03:02.236Z,80.90
2023-04-01T06:05:31.718Z,81.10
2023-04-01T06:08:03.920Z,81.00
2023-04-01T06:10:39.314Z,80.10
2023-04-01T06:13:35.590Z,80.40
2023-04-01T06:16:52.822Z,80.70
2023-04-01T06:19:51.385Z,80.80
2023-04-01T06:22:50.304Z,81.10
2023-04-01T06:25:39.385Z,80.70
2023-04-01T06:28:36.949Z,80.70
2023-04-01T06:31:35.119Z,80.80
2023-04-01T06:34:29.366Z,80.70
2023-04-01T06:37:14.988Z,81.20
2023-04-01T06:39:59.878Z,81.20
2023-04-01T06:42:39.058Z,80.90
2023-04-01T06:45:35.614Z,81.10
2023-04-01T06:48:42.084Z,81.10
2023-04-01T06:51:41.029Z,81.00
2023-04-01T06:55:04.992Z,81.20
2023-04-01T06:57:54.084Z,80.80
2023-04-01T07:00:33.759Z,80.70
2023-04-01T07:03:15.457Z,80.80
2023-04-01T07:05:43.263Z,80.30
2023-04-01T07:08:16.962Z,81.30
2023-04-01T07:11:06.233Z,81.40
2023-04-01T07:13:56.254Z,80.60
2023-04-01T07:16:32.129Z,80.50
2023-04-01T07:19:09.650Z,80.10
2023-04-01T07:22:01.273Z,80.10
2023-04-01T07:24:45.736Z,80.60
2023-04-01T07:27:14.768Z,79.90
2023-04-01T07:29:43.673Z,80.90
2023-04-01T07:32:17.641Z,81.40
2023-04-01T07:35:16.169Z,80.30
2023-04-01T07:37:51.744Z,80.90
2023-04-01T07:40:37.592Z,80.70
2023-04-01T07:43:41.822Z,80.60
2023-04-01T07:46:49.106Z,80.90
2023-04-01T07:49:37.695Z,80.60
2023-04-01T07:52:21.163Z,80.80
2023-04-01T07:55:48.240Z,80.80
2023-04-01T07:58:38.512Z,81.40
2023-04-01T08:01:28.509Z,80.90
2023-04-01T08:04:07.569Z,81.30
2023-04-01T08:06:46.638Z,80.60
2023-04-01T08:09:24.221Z,80.30
2023-04-01T08:12:23.096Z,80.90
2023-04-01T08:15:28.622Z,80.90
2023-04-01T08:18:32.876Z,80.50
2023-04-01T08:21:02.786Z,81.00
2023-04-01T08:23:34.785Z,80.90
2023-04-01T08:26:16.661Z,80.60
2023-04-01T08:28:52.290Z,81.10
2023-04-01T08:31:30.788Z,80.80
2023-04-01T08:33:58.502Z,80.80
2023-04-01T08:36:55.196Z,80.60
2023-04-01T08:39:51.981Z,80.80
2023-04-01T08:42:42.586Z,80.50
2023-04-01T08:45:46.033Z,80.70
2023-04-01T08:48:28.911Z,81.50
2023-04-01T08:51:28.689Z,81.00
2023-04-01T08:54:08.396Z,81.10
2023-04-01T08:56:54.390Z,81.00
2023-04-01T08:59:39.083Z,79.60
2023-04-01T09:02:42.020Z,79.80
2023-04-01T09:06:12.113Z,81.10
2023-04-01T09:08:55.303Z,81.50
2023-04-01T09:11:52.514Z,81.20
2023-04-01T09:15:09.294Z,81.00
2023-04-01T09:17:48.425Z,81.60
2023-04-01T09:20:45.593Z,81.90
2023-04-01T09:23:30.425Z,80.70
2023-04-01T09:26:34.362Z,80.80
2023-04-01T09:29:25.514Z,80.70
2023-04-01T09:32:10.765Z,81.30
2023-04-01T09:35:19.984Z,80.50
2023-04-01T09:37:48.002Z,79.80
2023-04-01T09:40:46.045Z,79.70
2023-04-01T09:43:26.911Z,80.00
2023-04-01T09:46:32.250Z,78.40
2023-04-01T09:49:26.461Z,79.20
2023-04-01T09:52:07.320Z,80.40
2023-04-01T09:54:56.245Z,78.80
2023-04-01T09:57:48.873Z,79.50
2023-04-01T10:01:09.622Z,79.70
2023-04-01T10:04:18.646Z,80.20
2023-04-01T10:07:25.697Z,80.70
2023-04-01T10:10:20.740Z,80.20
2023-04-01T10:13:02.724Z,78.30
2023-04-01T10:15:52.147Z,77.50
2023-04-01T10:18:54.332Z,76.50
2023-04-01T10:21:41.976Z,78.00
2023-04-01T10:24:39.482Z,78.50
2023-04-01T10:27:37.517Z,76.60
2023-04-01T10:30:28.442Z,74.00
2023-04-01T10:33:26.312Z,74.40
2023-04-01T10:35:59.209Z,72.00
2023-04-01T10:38:48.009Z,73.40
2023-04-01T10:41:30.523Z,73.60
2023-04-01T10:45:03.289Z,72.00
2023-04-01T10:48:03.098Z,71.80
2023-04-01T10:51:29.560Z,71.60
2023-04-01T10:54:58.480Z,71.60
2023-04-01T10:58:16.234Z,73.30
2023-04-01T11:01:57.673Z,70.80
2023-04-01T11:05:20.754Z,71.60
2023-04-01T11:08:19.185Z,72.60
2023-04-01T11:11:04.492Z,73.50
2023-04-01T11:14:04.336Z,71.30
2023-04-01T11:16:54.175Z,65.90
2023-04-01T11:19:26.504Z,66.60
2023-04-01T11:22:32.613Z,65.90
2023-04-01T11:25:12.761Z,66.10
2023-04-01T11:28:12.858Z,65.80
2023-04-01T11:31:06.204Z,67.50
2023-04-01T11:34:04.100Z,68.00
2023-04-01T11:36:38.667Z,68.60
2023-04-01T11:39:22.919Z,69.80
2023-04-01T11:42:31.631Z,70.30
2023-04-01T11:45:29.686Z,69.60
2023-04-01T11:48:18.234Z,70.50
2023-04-01T11:50:48.088Z,69.90
2023-04-01T11:53:24.334Z,71.20
2023-04-01T11:56:27.858Z,71.20
2023-04-01T11:59:30.328Z,71.00
2023-04-01T12:02:32.694Z,71.20
2023-04-01T12:05:03.891Z,73.50
2023-04-01T12:08:07.892Z,74.70
2023-04-01T12:10:57.916Z,74.80
2023-04-01T12:13:32.429Z,74.80
2023-04-01T12:16:08.413Z,75.80
2023-04-01T12:19:04.461Z,76.30
2023-04-01T12:21:45.465Z,76.80
2023-04-01T12:24:33.517Z,77.00
2023-04-01T12:27:16.879Z,77.10
2023-04-01T12:30:07.438Z,76.60
2023-04-01T12:33:11.731Z,76.30
2023-04-01T12:36:14.115Z,76.60
2023-04-01T12:39:09.246Z,76.90
2023-04-01T12:42:06.745Z,75.50
2023-04-01T12:44:56.242Z,76.10
2023-04-01T12:47:44.722Z,76.20
2023-04-01T12:50:27.647Z,75.80
2023-04-01T12:53:04.107Z,76.00
2023-04-01T12:55:31.266Z,75.40
2023-04-01T12:58:11.913Z,75.30
2023-04-01T13:01:01.519Z,75.70
2023-04-01T13:03:58.422Z,74.90
2023-04-01T13:06:43.010Z,75.20
2023-04-01T13:09:18.511Z,75.00
2023-04-01T13:12:14.188Z,73.70
2023-04-01T13:15:11.778Z,72.80
2023-04-01T13:17:50.625Z,70.70
2023-04-01T13:20:37.437Z,71.80
2023-04-01T13:23:46.088Z,72.20
2023-04-01T13:26:24.870Z,73.10
2023-04-01T13:29:02.972Z,72.50
2023-04-01T13:31:47.592Z,73.70
2023-04-01T13:34:22.915Z,72.80
2023-04-01T13:37:30.130Z,73.50
2023-04-01T13:40:18.856Z,73.70
2023-04-01T13:42:55.214Z,73.00
2023-04-01T13:45:31.984Z,73.20
2023-04-01T13:48:12.826Z,73.50
2023-04-01T13:51:18.018Z,73.20
2023-04-01T13:54:17.140Z,74.00
2023-04-01T13:57:09.863Z,74.40
2023-04-01T13:59:58.106Z,75.20
2023-04-01T14:02:59.622Z,75.40
2023-04-01T14:05:51.511Z,74.90
2023-04-01T14:08:36.978Z,75.50
2023-04-01T14:11:29.076Z,75.90
2023-04-01T14:14:23.656Z,75.80
2023-04-01T14:17:08.526Z,76.30
2023-04-01T14:19:46.628Z,77.10
2023-04-01T14:22:28.236Z,77.00
2023-04-01T14:25:34.429Z,77.70
2023-04-01T14:28:24.552Z,77.20
2023-04-01T14:31:28.431Z,75.90
2023-04-01T14:34:16.129Z,76.60
2023-04-01T14:36:55.027Z,78.00
2023-04-01T14:39:37.380Z,78.10
2023-04-01T14:42:22.304Z,78.20
2023-04-01T14:45:13.776Z,78.50
2023-04-01T14:47:59.952Z,77.10
2023-04-01T14:50:41.130Z,77.20
2023-04-01T14:53:20.685Z,77.70
2023-04-01T14:55:59.992Z,77.10
2023-04-01T14:58:51.551Z,77.50
2023-04-01T15:01:35.437Z,78.00
2023-04-01T15:04:08.078Z,78.50
2023-04-01T15:07:16.557Z,77.40
2023-04-01T15:10:09.106Z,78.10
2023-04-01T15:12:45.760Z,77.30
2023-04-01T15:15:44.729Z,78.00
2023-04-01T15:18:50.344Z,77.50
2023-04-01T15:21:35.930Z,78.30
2023-04-01T15:24:08.971Z,78.40
2023-04-01T15:26:53.993Z,78.30
2023-04-01T15:29:40.438Z,78.30
2023-04-01T15:32:45.109Z,78.30
2023-04-01T15:35:39.859Z,77.80
2023-04-01T15:38:44.793Z,77.30
2023-04-01T15:41:39.977Z,77.20
2023-04-01T15:44:39.359Z,78.00
2023-04-01T15:47:24.736Z,78.30
2023-04-01T15:50:03.693Z,77.20
2023-04-01T15:53:03.091Z,76.70
2023-04-01T15:55:56.777Z,77.00
2023-04-01T15:58:51.136Z,76.80
2023-04-01T16:01:40.599Z,76.40
2023-04-01T16:04:33.880Z,76.90
2023-04-01T16:07:29.891Z,76.90
2023-04-01T16:10:00.124Z,77.60
2023-04-01T16:12:46.282Z,77.00
2023-04-01T16:15:40.722Z,77.10
2023-04-01T16:18:38.256Z,77.00
2023-04-01T16:21:37.204Z,77.60
2023-04-01T16:24:11.804Z,77.40
2023-04-01T16:26:51.707Z,76.30
2023-04-01T16:29:24.277Z,76.60
2023-04-01T16:32:38.684Z,77.20
2023-04-01T16:35:24.278Z,77.30
2023-04-01T16:38:02.233Z,77.20
2023-04-01T16:40:43.188Z,76.10
2023-04-01T16:43:31.537Z,77.00
2023-04-01T16:46:20.982Z,76.50
2023-04-01T16:49:12.031Z,77.00
2023-04-01T16:51:57.097Z,77.20
2023-04-01T16:54:29.476Z,76.70
2023-04-01T16:57:17.715Z,77.00
2023-04-01T16:59:49.252Z,76.90
2023-04-01T17:02:19.029Z,76.40
2023-04-01T17:04:49.331Z,77.20
2023-04-01T17:07:45.198Z,76.60
2023-04-01T17:10:50.367Z,77.60
2023-04-01T17:13:38.630Z,76.70
2023-04-01T17:16:20.506Z,76.80
2023-04-01T17:19:09.024Z,77.20
2023-04-01T17:21:44.570Z,77.10
2023-04-01T17:24:41.791Z,76.10
2023-04-01T17:27:14.663Z,76.50
2023-04-01T17:30:02.891Z,76.50
2023-04-01T17:33:01.016Z,76.70
2023-04-01T17:35:40.416Z,76.40
2023-04-01T17:38:39.695Z,76.60
2023-04-01T17:41:43.933Z,77.00
2023-04-01T17:44:13.855Z,76.30
2023-04-01T17:46:52.720Z,76.30
2023-04-01T17:49:37.579Z,76.60
2023-04-01T17:52:18.157Z,76.30
2023-04-01T17:55:04.997Z,76.80
2023-04-01T17:57:56.890Z,75.60
2023-04-01T18:00:35.228Z,77.30
2023-04-01T18:03:24.588Z,76.50
2023-04-01T18:05:54.169Z,76.10
2023-04-01T18:08:45.451Z,76.50
2023-04-01T18:11:15.601Z,76.50
2023-04-01T18:14:00.859Z,76.70
2023-04-01T18:16:42.913Z,76.70
2023-04-01T18:19:16.795Z,75.80
2023-04-01T18:21:54.558Z,75.70
2023-04-01T18:24:26.086Z,75.90
2023-04-01T18:27:25.116Z,76.10
2023-04-01T18:29:57.633Z,75.80
2023-04-01T18:32:32.519Z,75.30
2023-04-01T18:35:22.291Z,75.00
2023-04-01T18:38:13.771Z,75.20
2023-04-01T18:40:52.045Z,75.90
2023-04-01T18:43:57.197Z,74.70
2023-04-01T18:46:41.087Z,74.80
2023-04-01T18:49:14.481Z,74.80
2023-04-01T18:51:54.904Z,74.00
2023-04-01T18:54:33.197Z,74.90
2023-04-01T18:57:11.921Z,75.20
2023-04-01T19:00:07.461Z,74.30
2023-04-01T19:02:54.852Z,74.90
2023-04-01T19:05:32.821Z,75.70
2023-04-01T19:08:29.430Z,75.50
2023-04-01T19:11:11.660Z,74.50
2023-04-01T19:14:03.727Z,74.70
2023-04-01T19:17:04.266Z,75.10
2023-04-01T19:19:56.100Z,75.20
2023-04-01T19:22:32.237Z,74.90
2023-04-01T19:25:20.827Z,74.10
2023-04-01T19:27:54.684Z,74.20
2023-04-01T19:31:00.328Z,74.30
2023-04-01T19:34:00.728Z,74.50
2023-04-01T19:36:57.005Z,74.60
2023-04-01T19:39:58.196Z,74.20
2023-04-01T19:42:39.893Z,74.60
2023-04-01T19:45:45.210Z,74.10
2023-04-01T19:48:38.850Z,73.30
2023-04-01T19:51:11.107Z,73.90
2023-04-01T19:54:08.527Z,74.10
2023-04-01T19:57:01.720Z,73.80
2023-04-01T19:59:40.593Z,74.20
2023-04-01T20:02:12.085Z,73.60
2023-04-01T20:04:46.984Z,73.50
2023-04-01T20:07:25.950Z,73.70
2023-04-01T20:10:18.792Z,72.80
2023-04-01T20:13:07.443Z,73.30
2023-04-01T20:15:36.916Z,72.70
2023-04-01T20:18:28.395Z,72.30
2023-04-01T20:21:18.060Z,72.00
2023-04-01T20:23:45.107Z,72.20
2023-04-01T20:26:14.696Z,72.50
2023-04-01T20:28:48.171Z,72.80
2023-04-01T20:31:41.446Z,73.00
2023-04-01T20:34:32.147Z,72.80
2023-04-01T20:37:28.770Z,72.90
2023-04-01T20:40:01.499Z,72.10
2023-04-01T20:42:36.577Z,72.00
2023-04-01T20:45:31.287Z,72.00
2023-04-01T20:48:38.320Z,72.50
2023-04-01T20:51:15.215Z,72.30
2023-04-01T20:53:52.467Z,72.90
2023-04-01T20:56:44.135Z,72.00
2023-04-01T20:59:57.331Z,72.20
2023-04-01T21:02:52.559Z,71.80
2023-04-01T21:05:52.172Z,71.10
2023-04-01T21:08:56.614Z,71.30
2023-04-01T21:11:35.408Z,71.10
2023-04-01T21:14:39.405Z,72.70
2023-04-01T21:17:25.418Z,72.90
2023-04-01T21:20:18.779Z,72.30
2023-04-01T21:23:04.191Z,71.20
2023-04-01T21:26:07.940Z,70.50
2023-04-01T21:28:53.379Z,70.60
2023-04-01T21:31:49.328Z,70.20
2023-04-01T21:34:50.710Z,70.00
2023-04-01T21:37:45.315Z,69.40
2023-04-01T21:40:14.797Z,68.90
2023-04-01T21:42:41.509Z,68.50
2023-04-01T21:45:20.217Z,69.00
2023-04-01T21:48:13.979Z,69.10
2023-04-01T21:51:29.319Z,69.10
2023-04-01T21:54:09.630Z,69.00
2023-04-01T21:56:57.514Z,69.00
2023-04-01T21:59:43.069Z,69.10
2023-04-01T22:02:30.712Z,69.00
2023-04-01T22:05:07.643Z,68.20
2023-04-01T22:07:47.223Z,68.40
2023-04-01T22:10:42.322Z,68.30
2023-04-01T22:13:21.186Z,68.00
2023-04-01T22:16:10.410Z,68.20
2023-04-01T22:18:50.497Z,68.20
2023-04-01T22:21:24.244Z,68.30
2023-04-01T22:24:21.142Z,68.20
2023-04-01T22:27:01.802Z,68.10
2023-04-01T22:29:33.105Z,68.30
2023-04-01T22:32:09.272Z,67.90
2023-04-01T22:34:58.562Z,67.70
2023-04-01T22:37:40.634Z,68.30
2023-04-01T22:40:38.832Z,67.60
2023-04-01T22:43:11.721Z,68.50
2023-04-01T22:46:16.522Z,68.00
2023-04-01T22:48:59.072Z,67.90
2023-04-01T22:51:31.791Z,67.80
2023-04-01T22:54:23.711Z,67.90
2023-04-01T22:56:58.611Z,67.70
2023-04-01T22:59:35.542Z,67.70
2023-04-01T23:02:16.396Z,67.50
2023-04-01T23:04:46.538Z,67.70
2023-04-01T23:07:50.095Z,67.30
2023-04-01T23:10:50.744Z,67.70
2023-04-01T23:13:23.514Z,67.60
2023-04-01T23:15:54.390Z,67.50
2023-04-01T23:18:59.048Z,67.70
2023-04-01T23:22:07.608Z,68.20
2023-04-01T23:24:38.819Z,68.30
2023-04-01T23:27:41.639Z,68.10
2023-04-01T23:30:39.417Z,67.90
2023-04-01T23:33:27.477Z,68.10
2023-04-01T23:35:56.155Z,68.20
2023-04-01T23:38:26.774Z,67.80
2023-04-01T23:40:56.048Z,68.60
2023-04-01T23:43:35.468Z,67.80
2023-04-01T23:46:07.044Z,67.40
2023-04-01T23:48:36.565Z,67.40
2023-04-01T23:51:04.054Z,67.40
2023-04-01T23:53:35.091Z,67.00
2023-04-01T23:56:05.546Z,67.00
2023-04-01T23:58:38.410Z,67.50
